createdAt,value
2023-05-04T00:00:08.724Z,14.65
2023-05-04T00:10:11.031Z,12.13
2023-05-04T00:20:21.915Z,14.35
2023-05-04T00:30:31.016Z,15.88
2023-05-04T00:40:52.077Z,16.48
2023-05-04T00:50:54.247Z,12.85
2023-05-04T01:00:59.157Z,16.80
2023-05-04T01:11:11.957Z,15.57
2023-05-04T01:21:13.952Z,14.20
2023-05-04T01:31:17.950Z,16.20
2023-05-04T01:41:21.901Z,15.98
2023-05-04T01:51:25.025Z,18.33
2023-05-04T02:01:33.284Z,13.63
2023-05-04T02:11:35.241Z,16.90
2023-05-04T02:21:37.206Z,16.90
2023-05-04T02:31:39.206Z,17.05
2023-05-04T02:41:41.201Z,18.30
2023-05-04T02:51:44.256Z,17.48
2023-05-04T03:01:53.276Z,16.83
2023-05-04T03:11:55.643Z,20.75
2023-05-04T03:22:03.697Z,19.35
2023-05-04T03:33:11.390Z,21.58
2023-05-04T03:43:13.440Z,20.83
2023-05-04T03:53:22.254Z,24.10
2023-05-04T04:03:24.359Z,23.55
2023-05-04T04:13:28.169Z,17.80
2023-05-04T04:23:43.273Z,27.60
2023-05-04T04:34:02.469Z,23.50
2023-05-04T04:44:30.041Z,27.10
2023-05-04T04:54:32.073Z,25.98
2023-05-04T05:04:41.591Z,24.00
2023-05-04T05:14:44.677Z,24.27
2023-05-04T05:24:46.825Z,28.15
2023-05-04T05:34:50.979Z,22.77
2023-05-04T05:44:54.613Z,25.90
2023-05-04T05:54:56.705Z,27.60
2023-05-04T06:04:58.747Z,31.88
2023-05-04T06:15:00.900Z,22.20
2023-05-04T06:25:05.882Z,16.90
2023-05-04T06:35:11.949Z,16.33
2023-05-04T06:45:14.103Z,19.40
2023-05-04T06:55:22.171Z,18.73
2023-05-04T07:05:26.318Z,17.05
2023-05-04T07:15:28.388Z,17.50
2023-05-04T07:25:30.614Z,14.60
2023-05-04T07:35:32.667Z,13.40
2023-05-04T07:45:34.808Z,7.80
2023-05-04T07:55:37.119Z,10.13
2023-05-04T08:05:39.100Z,4.00
2023-05-04T08:15:41.613Z,3.25
2023-05-04T08:25:44.634Z,4.05
2023-05-04T08:35:50.023Z,3.35
2023-05-04T08:45:54.098Z,1.92
2023-05-04T08:56:04.259Z,3.42
2023-05-04T09:06:08.782Z,4.78
2023-05-04T09:16:17.239Z,4.47
2023-05-04T09:26:31.518Z,2.97
2023-05-04T09:36:33.454Z,3.75
2023-05-04T09:46:36.642Z,6.13
2023-05-04T09:56:48.950Z,5.20
2023-05-04T10:06:51.068Z,2.72
2023-05-04T10:17:18.221Z,4.18
2023-05-04T10:27:53.379Z,2.95
2023-05-04T10:37:56.798Z,3.20
2023-05-04T10:47:59.019Z,3.78
2023-05-04T10:58:02.157Z,3.63
2023-05-04T11:08:15.950Z,3.42
2023-05-04T11:18:32.766Z,5.05
2023-05-04T11:28:38.709Z,4.45
2023-05-04T11:38:44.157Z,5.30
2023-05-04T11:48:46.457Z,4.55
2023-05-04T11:58:48.472Z,3.78
2023-05-04T12:08:50.621Z,3.58
2023-05-04T12:19:03.773Z,3.67
2023-05-04T12:29:08.945Z,4.03
2023-05-04T12:39:11.015Z,5.50
2023-05-04T12:49:15.088Z,5.20
2023-05-04T12:59:17.218Z,4.20
2023-05-04T13:09:21.091Z,6.80
2023-05-04T13:19:23.229Z,4.50
2023-05-04T13:29:27.259Z,4.40
2023-05-04T13:39:29.529Z,5.20
2023-05-04T13:49:34.727Z,5.82
2023-05-04T13:59:36.814Z,5.32
2023-05-04T14:09:39.276Z,4.28
2023-05-04T14:19:41.216Z,4.35
2023-05-04T14:29:47.182Z,5.20
2023-05-04T14:49:53.149Z,6.18
2023-05-04T14:59:55.318Z,5.43
2023-05-04T15:09:57.510Z,3.90
2023-05-04T15:20:04.412Z,5.10
2023-05-04T15:30:09.241Z,7.70
2023-05-04T15:40:12.972Z,5.10
2023-05-04T15:50:16.061Z,4.47
2023-05-04T16:00:19.472Z,5.25
2023-05-04T16:10:22.450Z,4.13
2023-05-04T16:20:24.602Z,5.50
2023-05-04T16:30:34.403Z,6.18
2023-05-04T16:40:38.606Z,4.60
2023-05-04T16:50:40.678Z,4.47
2023-05-04T17:00:43.080Z,4.65
2023-05-04T17:10:45.420Z,5.03
2023-05-04T17:20:47.339Z,6.30
2023-05-04T17:30:52.968Z,6.43
2023-05-04T17:40:54.947Z,4.47
2023-05-04T17:50:57.738Z,6.63
2023-05-04T18:00:59.793Z,7.90
2023-05-04T18:11:04.030Z,5.40
2023-05-04T18:21:06.020Z,21.73
2023-05-04T18:31:08.340Z,6.63
2023-05-04T18:41:12.455Z,13.40
2023-05-04T18:51:14.915Z,8.85
2023-05-04T19:01:16.974Z,25.33
2023-05-04T19:11:19.110Z,16.70
2023-05-04T19:21:22.857Z,12.82
2023-05-04T19:31:24.920Z,7.93
2023-05-04T19:41:28.966Z,6.40
2023-05-04T19:51:30.965Z,6.88
2023-05-04T20:01:33.913Z,6.72
2023-05-04T20:11:36.385Z,13.88
2023-05-04T20:21:38.459Z,11.85
2023-05-04T20:31:47.303Z,17.73
2023-05-04T20:42:08.788Z,15.45
2023-05-04T20:52:11.780Z,8.13
2023-05-04T21:02:17.878Z,8.75
2023-05-04T21:12:19.719Z,9.65
2023-05-04T21:22:21.858Z,7.75
2023-05-04T21:32:34.974Z,7.32
2023-05-04T21:42:36.950Z,8.18
2023-05-04T21:52:38.819Z,9.05
2023-05-04T22:02:59.777Z,7.57
2023-05-04T22:13:01.814Z,7.18
2023-05-04T22:23:04.666Z,8.00
2023-05-04T22:33:06.625Z,8.10
2023-05-04T22:43:08.783Z,9.15
2023-05-04T22:53:11.111Z,8.73
2023-05-04T23:03:57.970Z,8.55
2023-05-04T23:14:03.055Z,11.95
2023-05-04T23:24:05.209Z,9.55
2023-05-04T23:34:07.117Z,11.73
2023-05-04T23:44:08.990Z,11.93
2023-05-04T23:54:10.913Z,11.25
